Time;durP1;ratioP1;P1;durP2;ratioP2;P2;SDS_P1;SDS_P2;PMS_P1;PMS_P2;Temp;Humidity;BMP_temperature;BMP_pressure;BME280_temperature;BME280_humidity;BME280_pressure;Samples;Min_cycle;Max_cycle;Signal;HPM_P1;HPM_P2
2022/05/27 00:01:43;;;;;;;12.70;1.90;;;;;;;;;;5092268;28;20943;-71
2022/05/27 00:04:10;;;;;;;11.87;1.50;;;;;;;;;;5092078;28;20445;-70
2022/05/27 00:06:39;;;;;;;14.13;1.67;;;;;;;;;;5092424;28;20425;-70
2022/05/27 00:09:06;;;;;;;15.20;2.00;;;;;;;;;;5092152;28;20437;-70
2022/05/27 00:11:34;;;;;;;12.60;1.70;;;;;;;;;;5091942;28;20676;-70
2022/05/27 00:14:01;;;;;;;12.87;1.80;;;;;;;;;;5092102;28;20438;-70
2022/05/27 00:16:29;;;;;;;12.90;1.80;;;;;;;;;;5092051;28;20932;-71
2022/05/27 00:18:58;;;;;;;13.27;1.70;;;;;;;;;;5092039;28;20462;-71
2022/05/27 00:21:26;;;;;;;13.80;2.37;;;;;;;;;;5091611;28;20451;-71
2022/05/27 00:23:55;;;;;;;11.20;1.30;;;;;;;;;;5091865;28;20951;-70
2022/05/27 00:26:22;;;;;;;12.50;2.10;;;;;;;;;;5091794;28;20939;-71
2022/05/27 00:28:50;;;;;;;12.30;1.50;;;;;;;;;;5091850;28;20533;-70
2022/05/27 00:31:20;;;;;;;13.90;1.67;;;;;;;;;;5091424;28;20486;-71
2022/05/27 00:33:48;;;;;;;12.23;1.80;;;;;;;;;;5091907;28;20447;-70
2022/05/27 00:36:15;;;;;;;12.10;1.57;;;;;;;;;;5091547;28;20469;-70
2022/05/27 00:38:44;;;;;;;12.97;1.93;;;;;;;;;;5091657;28;20442;-71
2022/05/27 00:41:13;;;;;;;13.33;2.00;;;;;;;;;;5092454;28;20438;-70
2022/05/27 00:43:41;;;;;;;12.13;1.90;;;;;;;;;;5095666;28;20434;-70
2022/05/27 00:46:14;;;;;;;12.70;1.73;;;;;;;;;;5096216;28;20457;-70
2022/05/27 00:48:43;;;;;;;14.43;1.73;;;;;;;;;;5095760;28;20845;-70
2022/05/27 00:51:15;;;;;;;13.20;1.70;;;;;;;;;;5096001;28;20469;-70
2022/05/27 00:53:45;;;;;;;12.00;1.80;;;;;;;;;;5095725;28;20452;-70
2022/05/27 00:56:15;;;;;;;12.37;1.60;;;;;;;;;;5095456;28;20826;-70
2022/05/27 00:58:47;;;;;;;16.60;1.70;;;;;;;;;;5095472;28;20438;-70
2022/05/27 01:01:15;;;;;;;18.43;1.90;;;;;;;;;;5095609;28;20819;-72
2022/05/27 01:03:44;;;;;;;12.90;1.60;;;;;;;;;;5095673;28;20449;-70
2022/05/27 01:06:11;;;;;;;16.03;1.90;;;;;;;;;;5095720;28;20446;-70
2022/05/27 01:08:39;;;;;;;15.50;2.07;;;;;;;;;;5095329;28;20460;-70
2022/05/27 01:11:12;;;;;;;13.63;1.80;;;;;;;;;;5095449;28;20481;-71
2022/05/27 01:13:51;;;;;;;11.83;1.60;;;;;;;;;;5095604;28;20449;-70
2022/05/27 01:16:26;;;;;;;11.90;1.70;;;;;;;;;;5095301;28;20896;-70
2022/05/27 01:21:52;;;;;;;13.30;2.30;;;;;;;;;;5095168;28;20502;-70
2022/05/27 01:24:41;;;;;;;13.47;2.10;;;;;;;;;;5095125;28;20449;-70
2022/05/27 01:27:14;;;;;;;12.50;1.80;;;;;;;;;;5094931;28;20457;-70
2022/05/27 01:29:52;;;;;;;13.90;2.03;;;;;;;;;;5094865;28;20981;-70
2022/05/27 01:32:26;;;;;;;12.50;2.13;;;;;;;;;;5095467;28;20477;-70
2022/05/27 01:34:57;;;;;;;13.07;1.87;;;;;;;;;;5094871;28;20445;-70
2022/05/27 01:37:29;;;;;;;13.63;2.00;;;;;;;;;;5094506;28;20461;-71
2022/05/27 01:40:02;;;;;;;11.73;1.80;;;;;;;;;;5094813;28;20446;-70
2022/05/27 01:42:33;;;;;;;12.30;1.70;;;;;;;;;;5094651;28;20442;-70
2022/05/27 01:45:02;;;;;;;14.57;2.00;;;;;;;;;;5094651;28;20444;-70
2022/05/27 01:47:34;;;;;;;15.70;2.40;;;;;;;;;;5094633;28;20438;-70
2022/05/27 01:50:05;;;;;;;12.10;2.10;;;;;;;;;;5094933;28;20433;-70
2022/05/27 01:52:36;;;;;;;12.73;1.73;;;;;;;;;;5093885;28;20442;-70
2022/05/27 01:55:08;;;;;;;11.40;1.50;;;;;;;;;;5094784;28;20429;-71
2022/05/27 01:57:39;;;;;;;12.73;2.20;;;;;;;;;;5094415;28;20453;-70
2022/05/27 02:00:10;;;;;;;13.90;2.10;;;;;;;;;;5094455;28;20962;-70
2022/05/27 02:02:41;;;;;;;12.50;1.87;;;;;;;;;;5094535;28;20442;-70
2022/05/27 02:05:11;;;;;;;13.00;1.77;;;;;;;;;;5094277;28;20446;-70
2022/05/27 02:07:41;;;;;;;13.80;2.23;;;;;;;;;;5093928;28;20450;-70
2022/05/27 02:10:11;;;;;;;13.70;2.47;;;;;;;;;;5094490;28;20438;-70
2022/05/27 02:12:41;;;;;;;12.77;2.07;;;;;;;;;;5094073;28;20442;-70
2022/05/27 02:15:10;;;;;;;15.30;1.90;;;;;;;;;;5094090;28;20438;-70
2022/05/27 02:17:42;;;;;;;15.43;2.17;;;;;;;;;;5093907;28;20464;-70
2022/05/27 02:20:13;;;;;;;12.67;1.90;;;;;;;;;;5093981;28;20438;-71
2022/05/27 02:22:41;;;;;;;14.13;1.90;;;;;;;;;;5094132;28;20442;-71
2022/05/27 02:25:13;;;;;;;11.57;1.77;;;;;;;;;;5094056;28;20439;-70
2022/05/27 02:27:43;;;;;;;12.60;2.00;;;;;;;;;;5093852;28;20442;-71
2022/05/27 02:30:16;;;;;;;13.70;2.00;;;;;;;;;;5094287;28;20445;-70
2022/05/27 02:32:47;;;;;;;11.77;1.90;;;;;;;;;;5094018;28;20446;-70
2022/05/27 02:35:18;;;;;;;14.57;2.20;;;;;;;;;;5093409;28;20438;-71
2022/05/27 02:37:46;;;;;;;14.60;2.10;;;;;;;;;;5093432;28;20871;-70
2022/05/27 02:40:16;;;;;;;11.60;1.90;;;;;;;;;;5093544;28;20446;-71
2022/05/27 02:42:51;;;;;;;14.43;2.10;;;;;;;;;;5093939;28;20462;-70
2022/05/27 02:45:25;;;;;;;12.27;1.90;;;;;;;;;;5093562;28;20437;-70
2022/05/27 02:47:57;;;;;;;12.00;1.90;;;;;;;;;;5093640;28;20437;-70
2022/05/27 02:50:28;;;;;;;12.93;1.67;;;;;;;;;;5093411;28;20453;-70
2022/05/27 02:53:00;;;;;;;13.10;1.80;;;;;;;;;;5093223;28;20537;-70
2022/05/27 02:55:30;;;;;;;13.40;1.70;;;;;;;;;;5093099;28;20445;-70
2022/05/27 02:58:02;;;;;;;12.93;1.80;;;;;;;;;;5093808;28;20438;-70
2022/05/27 03:00:31;;;;;;;11.50;2.00;;;;;;;;;;5093164;28;20974;-71
2022/05/27 03:03:00;;;;;;;12.30;2.10;;;;;;;;;;5093035;28;20449;-70
2022/05/27 03:05:30;;;;;;;14.90;2.20;;;;;;;;;;5091971;28;20496;-70
2022/05/27 03:08:10;;;;;;;12.10;1.83;;;;;;;;;;5092948;28;20448;-70
2022/05/27 03:10:50;;;;;;;12.47;2.03;;;;;;;;;;5092909;28;20432;-70
2022/05/27 03:13:28;;;;;;;13.33;2.23;;;;;;;;;;5092912;28;20444;-70
2022/05/27 03:16:02;;;;;;;15.50;1.90;;;;;;;;;;5092889;28;20440;-71
2022/05/27 03:18:37;;;;;;;12.07;2.03;;;;;;;;;;5093211;28;20481;-70
2022/05/27 03:21:09;;;;;;;12.87;2.13;;;;;;;;;;5092814;28;20448;-70
2022/05/27 03:23:45;;;;;;;11.73;2.13;;;;;;;;;;5092506;28;20452;-70
2022/05/27 03:26:18;;;;;;;13.20;2.90;;;;;;;;;;5092833;28;20448;-70
2022/05/27 03:28:50;;;;;;;13.47;2.33;;;;;;;;;;5092691;28;20937;-70
2022/05/27 03:31:24;;;;;;;12.47;2.37;;;;;;;;;;5092630;28;20473;-70
2022/05/27 03:33:58;;;;;;;12.90;2.43;;;;;;;;;;5092936;28;20441;-70
2022/05/27 03:36:33;;;;;;;12.80;2.27;;;;;;;;;;5092415;28;20454;-70
2022/05/27 03:39:03;;;;;;;19.40;2.90;;;;;;;;;;5092959;28;20445;-70
2022/05/27 03:41:32;;;;;;;13.07;2.47;;;;;;;;;;5092455;28;20522;-70
2022/05/27 03:43:59;;;;;;;17.60;2.40;;;;;;;;;;5092672;28;20537;-71
2022/05/27 03:46:31;;;;;;;25.03;6.83;;;;;;;;;;5092453;28;20513;-71
2022/05/27 03:49:00;;;;;;;56.97;15.77;;;;;;;;;;5092246;28;20449;-70
2022/05/27 03:51:29;;;;;;;31.77;6.90;;;;;;;;;;5091689;28;20477;-70
2022/05/27 03:54:06;;;;;;;16.93;2.80;;;;;;;;;;5092494;28;20431;-71
2022/05/27 03:56:35;;;;;;;12.80;2.20;;;;;;;;;;5092773;28;20442;-70
2022/05/27 03:59:02;;;;;;;12.23;2.03;;;;;;;;;;5092400;28;20977;-70
2022/05/27 04:01:31;;;;;;;14.07;2.30;;;;;;;;;;5091897;28;20445;-71
2022/05/27 04:04:00;;;;;;;11.97;2.00;;;;;;;;;;5092747;28;20447;-71
2022/05/27 04:06:28;;;;;;;13.33;2.60;;;;;;;;;;5092241;28;20448;-71
2022/05/27 04:08:56;;;;;;;14.13;2.20;;;;;;;;;;5092088;28;20430;-70
2022/05/27 04:11:23;;;;;;;11.70;1.90;;;;;;;;;;5091715;28;21002;-71
2022/05/27 04:13:50;;;;;;;17.63;2.07;;;;;;;;;;5092027;28;20826;-71
2022/05/27 04:16:18;;;;;;;14.57;2.27;;;;;;;;;;5091665;28;20936;-70
2022/05/27 04:18:45;;;;;;;13.07;2.13;;;;;;;;;;5091936;28;20472;-71
2022/05/27 04:21:14;;;;;;;21.33;2.80;;;;;;;;;;5092206;28;20442;-71
2022/05/27 04:23:42;;;;;;;12.60;2.10;;;;;;;;;;5092217;28;20447;-71
2022/05/27 04:26:09;;;;;;;12.57;2.27;;;;;;;;;;5092116;28;20824;-71
2022/05/27 04:28:37;;;;;;;14.43;2.80;;;;;;;;;;5091920;28;20441;-71
2022/05/27 04:31:06;;;;;;;12.80;2.23;;;;;;;;;;5091843;28;20431;-71
2022/05/27 04:33:33;;;;;;;12.00;1.97;;;;;;;;;;5091876;28;20462;-71
2022/05/27 04:36:01;;;;;;;15.10;2.63;;;;;;;;;;5091307;28;21024;-71
2022/05/27 04:38:31;;;;;;;12.43;2.27;;;;;;;;;;5091837;28;20515;-71
2022/05/27 04:40:58;;;;;;;12.30;2.30;;;;;;;;;;5091749;28;20457;-71
2022/05/27 04:43:26;;;;;;;14.80;2.27;;;;;;;;;;5091354;28;20442;-70
2022/05/27 04:45:53;;;;;;;13.00;2.20;;;;;;;;;;5091936;28;20445;-71
2022/05/27 04:48:21;;;;;;;13.57;2.07;;;;;;;;;;5091594;28;20498;-71
2022/05/27 04:50:49;;;;;;;13.20;2.20;;;;;;;;;;5091770;28;20441;-71
2022/05/27 04:53:16;;;;;;;12.60;2.40;;;;;;;;;;5091329;28;20485;-71
2022/05/27 04:55:45;;;;;;;13.07;2.13;;;;;;;;;;5091670;28;20967;-71
2022/05/27 04:58:13;;;;;;;14.20;3.07;;;;;;;;;;5091751;28;20434;-72
2022/05/27 05:00:42;;;;;;;12.93;2.40;;;;;;;;;;5091824;28;20457;-71
2022/05/27 05:03:09;;;;;;;13.87;2.73;;;;;;;;;;5091467;28;20454;-71
2022/05/27 05:05:37;;;;;;;14.10;2.53;;;;;;;;;;5091205;28;20452;-71
2022/05/27 05:08:06;;;;;;;14.40;2.67;;;;;;;;;;5091460;28;20438;-72
2022/05/27 05:10:35;;;;;;;15.50;2.47;;;;;;;;;;5091321;28;20465;-71
2022/05/27 05:13:05;;;;;;;12.67;2.50;;;;;;;;;;5091722;28;20476;-71
2022/05/27 05:15:33;;;;;;;12.27;2.30;;;;;;;;;;5091399;28;20434;-71
2022/05/27 05:18:00;;;;;;;14.83;2.40;;;;;;;;;;5091491;28;20486;-71
2022/05/27 05:20:29;;;;;;;19.30;2.90;;;;;;;;;;5091446;28;20438;-71
2022/05/27 05:22:57;;;;;;;14.10;2.53;;;;;;;;;;5091226;28;20476;-72
2022/05/27 05:25:25;;;;;;;21.00;2.87;;;;;;;;;;5091033;28;20438;-72
2022/05/27 05:27:53;;;;;;;12.80;2.50;;;;;;;;;;5092988;28;20541;-71
2022/05/27 05:30:24;;;;;;;12.87;2.70;;;;;;;;;;5094949;28;20454;-71
2022/05/27 05:32:51;;;;;;;13.00;2.20;;;;;;;;;;5095161;28;20488;-71
2022/05/27 05:35:19;;;;;;;13.80;3.07;;;;;;;;;;5094631;28;20449;-71
2022/05/27 05:37:47;;;;;;;13.70;2.27;;;;;;;;;;5094721;28;20472;-71
2022/05/27 05:40:14;;;;;;;14.23;3.10;;;;;;;;;;5094985;28;20438;-72
2022/05/27 05:42:42;;;;;;;15.10;2.70;;;;;;;;;;5094671;28;20450;-71
2022/05/27 05:45:10;;;;;;;15.00;2.97;;;;;;;;;;5094916;28;20461;-71
2022/05/27 05:47:39;;;;;;;15.30;2.87;;;;;;;;;;5094510;28;20437;-71
2022/05/27 05:50:07;;;;;;;16.57;2.60;;;;;;;;;;5094586;28;20433;-71
2022/05/27 05:52:35;;;;;;;13.00;2.30;;;;;;;;;;5094428;28;20481;-71
2022/05/27 05:55:03;;;;;;;14.07;2.77;;;;;;;;;;5094731;28;20465;-71
2022/05/27 05:57:31;;;;;;;13.40;2.70;;;;;;;;;;5094170;28;20441;-71
2022/05/27 06:00:00;;;;;;;16.13;3.10;;;;;;;;;;5094607;28;20815;-71
2022/05/27 06:02:27;;;;;;;12.90;2.30;;;;;;;;;;5094187;28;20544;-71
2022/05/27 06:04:56;;;;;;;12.23;2.47;;;;;;;;;;5094469;28;20442;-71
2022/05/27 06:07:24;;;;;;;16.27;2.50;;;;;;;;;;5094319;28;20433;-72
2022/05/27 06:09:51;;;;;;;13.07;2.33;;;;;;;;;;5094112;28;20446;-71
2022/05/27 06:12:23;;;;;;;17.17;3.50;;;;;;;;;;5094110;28;21014;-71
2022/05/27 06:14:53;;;;;;;13.07;2.63;;;;;;;;;;5094123;28;20507;-71
2022/05/27 06:17:20;;;;;;;14.20;2.90;;;;;;;;;;5094102;28;20510;-71
2022/05/27 06:19:48;;;;;;;14.87;3.23;;;;;;;;;;5094693;28;20474;-71
2022/05/27 06:22:32;;;;;;;14.53;2.73;;;;;;;;;;5109893;27;20605;-70
2022/05/27 06:25:00;;;;;;;14.37;3.17;;;;;;;;;;5110201;28;20509;-71
2022/05/27 06:27:27;;;;;;;16.63;2.53;;;;;;;;;;5109496;28;20472;-71
2022/05/27 06:35:34;;;;;;;12.67;2.80;;;;;;;;;;5108879;28;20532;-71
2022/05/27 06:38:03;;;;;;;14.40;2.93;;;;;;;;;;5109514;28;20437;-71
2022/05/27 06:40:32;;;;;;;15.83;3.20;;;;;;;;;;5109615;28;20488;-70
2022/05/27 06:42:59;;;;;;;15.20;2.83;;;;;;;;;;5109829;28;20433;-70
2022/05/27 06:45:27;;;;;;;17.03;3.00;;;;;;;;;;5109190;28;20448;-71
2022/05/27 06:47:55;;;;;;;14.30;2.47;;;;;;;;;;5109355;28;20445;-71
2022/05/27 06:50:22;;;;;;;12.60;2.83;;;;;;;;;;5109069;28;21017;-71
2022/05/27 06:52:50;;;;;;;16.87;3.40;;;;;;;;;;5109167;28;20955;-70
2022/05/27 06:55:20;;;;;;;14.57;2.93;;;;;;;;;;5109000;28;20453;-70
2022/05/27 06:57:47;;;;;;;13.43;3.00;;;;;;;;;;5109083;28;20442;-70
2022/05/27 07:00:15;;;;;;;14.47;3.33;;;;;;;;;;5108923;28;20939;-71
2022/05/27 07:02:43;;;;;;;16.07;3.13;;;;;;;;;;5109161;28;20422;-70
2022/05/27 07:05:10;;;;;;;12.63;2.67;;;;;;;;;;5108948;28;21117;-70
2022/05/27 07:07:38;;;;;;;16.20;2.90;;;;;;;;;;5108634;28;20958;-70
2022/05/27 07:10:06;;;;;;;13.40;3.10;;;;;;;;;;5108843;28;20445;-70
2022/05/27 07:12:35;;;;;;;13.70;3.20;;;;;;;;;;5109189;28;20448;-70
2022/05/27 07:15:03;;;;;;;16.13;3.43;;;;;;;;;;5108801;28;20465;-70
2022/05/27 07:17:30;;;;;;;15.00;2.90;;;;;;;;;;5108588;28;20437;-71
2022/05/27 07:19:58;;;;;;;14.43;3.77;;;;;;;;;;5108882;28;20429;-70
2022/05/27 07:22:27;;;;;;;13.43;3.67;;;;;;;;;;5108976;28;20500;-70
2022/05/27 07:24:54;;;;;;;16.00;3.57;;;;;;;;;;5108679;28;20433;-70
2022/05/27 07:27:21;;;;;;;14.90;3.57;;;;;;;;;;5108339;28;20516;-70
2022/05/27 07:29:51;;;;;;;19.70;3.60;;;;;;;;;;5108493;28;20444;-70
2022/05/27 07:32:18;;;;;;;13.47;3.20;;;;;;;;;;5104337;28;20806;-70
2022/05/27 07:34:46;;;;;;;15.43;3.77;;;;;;;;;;5094993;28;20434;-71
2022/05/27 07:37:15;;;;;;;16.43;3.70;;;;;;;;;;5094275;28;20481;-72
2022/05/27 07:39:42;;;;;;;15.90;4.10;;;;;;;;;;5095183;28;20442;-70
2022/05/27 07:42:10;;;;;;;15.73;4.20;;;;;;;;;;5094513;28;20481;-70
2022/05/27 07:44:37;;;;;;;13.93;3.57;;;;;;;;;;5094620;28;20450;-71
2022/05/27 07:47:07;;;;;;;18.13;4.27;;;;;;;;;;5094773;28;20442;-71
2022/05/27 07:49:35;;;;;;;13.80;3.73;;;;;;;;;;5094332;28;20489;-71
2022/05/27 07:52:03;;;;;;;15.43;4.43;;;;;;;;;;5094521;28;20449;-70
2022/05/27 07:54:31;;;;;;;16.50;3.97;;;;;;;;;;5094471;28;20493;-70
2022/05/27 07:56:59;;;;;;;15.53;4.33;;;;;;;;;;5094277;28;20445;-70
2022/05/27 07:59:26;;;;;;;14.43;3.77;;;;;;;;;;5094088;28;20453;-71
2022/05/27 08:01:53;;;;;;;15.57;4.27;;;;;;;;;;5094175;28;20854;-70
2022/05/27 08:04:23;;;;;;;15.43;3.63;;;;;;;;;;5094323;28;20951;-70
2022/05/27 08:06:50;;;;;;;16.27;3.97;;;;;;;;;;5094171;28;20449;-70
2022/05/27 08:09:18;;;;;;;15.60;3.90;;;;;;;;;;5094144;28;20426;-71
2022/05/27 08:11:46;;;;;;;15.37;3.90;;;;;;;;;;5094002;28;20499;-70
2022/05/27 08:14:14;;;;;;;15.30;3.77;;;;;;;;;;5094019;28;20446;-70
2022/05/27 08:16:42;;;;;;;13.13;3.37;;;;;;;;;;5094228;28;20434;-71
2022/05/27 08:19:10;;;;;;;17.20;3.37;;;;;;;;;;5094046;28;20438;-70
2022/05/27 08:21:39;;;;;;;18.10;4.70;;;;;;;;;;5093833;28;20496;-70
2022/05/27 08:24:07;;;;;;;19.10;4.27;;;;;;;;;;5093756;28;20434;-70
2022/05/27 08:26:35;;;;;;;14.73;4.03;;;;;;;;;;5094045;28;20807;-70
2022/05/27 08:29:03;;;;;;;15.17;3.83;;;;;;;;;;5094090;28;20430;-70
2022/05/27 08:31:30;;;;;;;17.37;3.87;;;;;;;;;;5093463;28;20533;-70
2022/05/27 08:39:29;;;;;;;17.30;4.40;;;;;;;;;;5093490;28;20822;-70
2022/05/27 08:42:04;;;;;;;14.50;4.17;;;;;;;;;;5093674;28;20546;-70
2022/05/27 08:44:36;;;;;;;16.20;3.60;;;;;;;;;;5092710;28;20423;-70
2022/05/27 08:47:07;;;;;;;18.40;3.70;;;;;;;;;;5093420;28;20454;-70
2022/05/27 08:49:37;;;;;;;14.07;3.90;;;;;;;;;;5093422;28;20446;-70
2022/05/27 08:52:08;;;;;;;14.83;3.50;;;;;;;;;;5093274;28;20444;-70
2022/05/27 08:54:37;;;;;;;14.20;3.80;;;;;;;;;;5093374;28;20444;-70
2022/05/27 08:59:53;;;;;;;17.20;3.97;;;;;;;;;;5093770;28;20600;-70
2022/05/27 09:02:26;;;;;;;15.87;3.63;;;;;;;;;;5093777;28;20478;-70
2022/05/27 09:04:59;;;;;;;16.93;3.60;;;;;;;;;;5093066;28;20447;-70
2022/05/27 09:07:31;;;;;;;18.57;3.30;;;;;;;;;;5093038;28;20444;-70
2022/05/27 09:09:59;;;;;;;14.13;3.13;;;;;;;;;;5092907;28;20975;-70
2022/05/27 09:12:30;;;;;;;14.60;3.23;;;;;;;;;;5093331;28;20870;-70
2022/05/27 09:15:00;;;;;;;14.00;3.33;;;;;;;;;;5092910;28;20794;-70
2022/05/27 09:17:34;;;;;;;16.40;3.27;;;;;;;;;;5092939;28;20429;-70
2022/05/27 09:20:04;;;;;;;15.73;3.03;;;;;;;;;;5092996;28;20804;-70
2022/05/27 09:22:37;;;;;;;16.90;3.50;;;;;;;;;;5092664;28;20487;-70
2022/05/27 09:25:13;;;;;;;12.80;2.67;;;;;;;;;;5092699;28;20444;-70
2022/05/27 09:27:44;;;;;;;13.43;2.80;;;;;;;;;;5092705;28;20964;-70
2022/05/27 09:30:13;;;;;;;14.33;3.40;;;;;;;;;;5092696;28;20440;-70
2022/05/27 09:32:45;;;;;;;15.23;3.33;;;;;;;;;;5092507;28;20452;-70
2022/05/27 09:35:15;;;;;;;14.83;3.10;;;;;;;;;;5092729;28;20800;-70
2022/05/27 09:37:45;;;;;;;13.97;3.40;;;;;;;;;;5092408;28;21016;-70
2022/05/27 09:40:16;;;;;;;16.00;3.43;;;;;;;;;;5093041;28;20437;-70
2022/05/27 09:42:49;;;;;;;14.50;2.83;;;;;;;;;;5092359;28;21044;-70
2022/05/27 09:45:18;;;;;;;13.37;3.10;;;;;;;;;;5092496;28;20885;-70
2022/05/27 09:47:45;;;;;;;15.00;3.13;;;;;;;;;;5092558;28;20441;-70
2022/05/27 09:50:24;;;;;;;16.93;4.53;;;;;;;;;;5092266;28;20448;-70
2022/05/27 09:52:55;;;;;;;13.90;3.23;;;;;;;;;;5092685;28;20951;-70
2022/05/27 09:55:25;;;;;;;13.47;3.17;;;;;;;;;;5091778;28;20443;-70
2022/05/27 09:57:57;;;;;;;14.20;3.00;;;;;;;;;;5092223;28;20532;-70
2022/05/27 10:00:36;;;;;;;13.50;2.80;;;;;;;;;;5092782;28;20428;-70
2022/05/27 10:03:18;;;;;;;14.83;3.13;;;;;;;;;;5092270;28;20486;-70
2022/05/27 10:05:51;;;;;;;13.50;3.67;;;;;;;;;;5092284;28;20445;-70
2022/05/27 10:08:28;;;;;;;13.87;3.10;;;;;;;;;;5092174;28;20912;-70
2022/05/27 10:11:07;;;;;;;15.47;3.47;;;;;;;;;;5092523;28;20427;-70
2022/05/27 10:13:35;;;;;;;15.37;2.70;;;;;;;;;;5091802;28;20441;-70
2022/05/27 10:16:08;;;;;;;13.57;3.20;;;;;;;;;;5091964;28;20440;-70
2022/05/27 10:18:35;;;;;;;17.10;3.87;;;;;;;;;;5092024;28;20986;-70
2022/05/27 10:21:04;;;;;;;14.57;3.50;;;;;;;;;;5091885;28;20986;-70
2022/05/27 10:23:35;;;;;;;14.27;2.83;;;;;;;;;;5091809;28;20476;-70
2022/05/27 10:26:19;;;;;;;15.83;3.20;;;;;;;;;;5091937;28;20486;-70
2022/05/27 10:28:56;;;;;;;15.67;3.17;;;;;;;;;;5091946;28;20539;-71
2022/05/27 10:31:25;;;;;;;15.13;3.20;;;;;;;;;;5091618;28;20452;-70
2022/05/27 10:33:53;;;;;;;16.70;4.30;;;;;;;;;;5091790;28;20803;-70
2022/05/27 10:36:38;;;;;;;14.17;3.57;;;;;;;;;;5091983;28;20548;-70
2022/05/27 10:39:08;;;;;;;14.40;3.50;;;;;;;;;;5082022;28;20446;-71
2022/05/27 10:41:47;;;;;;;14.33;3.07;;;;;;;;;;5091591;28;20450;-70
2022/05/27 10:44:16;;;;;;;13.50;3.20;;;;;;;;;;5091738;28;20449;-70
2022/05/27 10:46:48;;;;;;;13.70;3.10;;;;;;;;;;5092013;28;20434;-70
2022/05/27 10:49:27;;;;;;;16.83;3.90;;;;;;;;;;5091582;28;20439;-72
2022/05/27 10:52:03;;;;;;;13.90;3.00;;;;;;;;;;5091849;28;20437;-70
2022/05/27 10:54:41;;;;;;;13.90;2.83;;;;;;;;;;5091942;28;20430;-70
2022/05/27 11:03:12;;;;;;;14.00;3.40;;;;;;;;;;5091579;28;20530;-70
2022/05/27 11:05:44;;;;;;;13.40;2.83;;;;;;;;;;5092105;28;20438;-70
2022/05/27 11:08:22;;;;;;;13.73;3.03;;;;;;;;;;5093945;28;20491;-70
2022/05/27 11:10:55;;;;;;;17.47;2.83;;;;;;;;;;5095426;28;20874;-70
2022/05/27 11:16:36;;;;;;;13.87;2.87;;;;;;;;;;5095539;28;20436;-70
2022/05/27 11:19:16;;;;;;;14.90;3.20;;;;;;;;;;5095079;28;20445;-70
2022/05/27 11:21:49;;;;;;;12.87;2.60;;;;;;;;;;5095166;28;20588;-71
2022/05/27 11:24:37;;;;;;;15.63;2.90;;;;;;;;;;5095158;28;20530;-71
2022/05/27 11:27:10;;;;;;;16.27;2.83;;;;;;;;;;5090151;28;20454;-70
2022/05/27 11:29:45;;;;;;;15.03;2.60;;;;;;;;;;5094742;28;20528;-70
2022/05/27 11:32:19;;;;;;;12.90;2.77;;;;;;;;;;5095311;28;20494;-70
2022/05/27 11:34:52;;;;;;;14.03;3.10;;;;;;;;;;5095022;28;20440;-71
2022/05/27 11:37:29;;;;;;;13.60;3.10;;;;;;;;;;5094874;28;20449;-70
2022/05/27 11:40:03;;;;;;;12.80;2.40;;;;;;;;;;5094916;28;20437;-71
2022/05/27 11:42:55;;;;;;;19.77;3.03;;;;;;;;;;5094877;28;20511;-72
2022/05/27 11:45:26;;;;;;;13.90;3.43;;;;;;;;;;5038572;28;20440;-72
2022/05/27 11:47:59;;;;;;;13.50;2.80;;;;;;;;;;5095073;28;20874;-72
2022/05/27 11:50:33;;;;;;;13.80;2.57;;;;;;;;;;5094563;28;20429;-72
2022/05/27 11:53:05;;;;;;;14.00;3.30;;;;;;;;;;5094516;28;20453;-72
2022/05/27 11:55:44;;;;;;;14.90;3.00;;;;;;;;;;5094336;28;20452;-72
2022/05/27 11:58:19;;;;;;;15.57;3.00;;;;;;;;;;5094395;28;20453;-71
2022/05/27 12:00:50;;;;;;;14.27;2.90;;;;;;;;;;5094370;28;20437;-72
2022/05/27 12:03:22;;;;;;;14.40;2.97;;;;;;;;;;5094338;28;20473;-72
2022/05/27 12:05:52;;;;;;;14.40;2.97;;;;;;;;;;5094501;28;20812;-72
2022/05/27 12:08:27;;;;;;;13.27;3.07;;;;;;;;;;5094197;28;20441;-69
2022/05/27 12:10:56;;;;;;;13.27;3.47;;;;;;;;;;5094221;28;20437;-72
2022/05/27 12:13:27;;;;;;;14.80;3.33;;;;;;;;;;5093852;28;20833;-72
2022/05/27 12:15:57;;;;;;;16.30;2.80;;;;;;;;;;5094165;28;20449;-72
2022/05/27 12:18:27;;;;;;;13.87;2.80;;;;;;;;;;5093874;28;20456;-71
2022/05/27 12:20:55;;;;;;;13.40;3.00;;;;;;;;;;5094086;28;20485;-72
2022/05/27 12:23:24;;;;;;;13.70;3.00;;;;;;;;;;5093755;28;20477;-69
2022/05/27 12:25:53;;;;;;;13.10;2.57;;;;;;;;;;5093825;28;20434;-69
2022/05/27 12:28:24;;;;;;;15.30;2.80;;;;;;;;;;5093823;28;20503;-70
2022/05/27 12:30:52;;;;;;;13.87;2.97;;;;;;;;;;5093928;28;20422;-70
2022/05/27 12:33:23;;;;;;;13.83;2.90;;;;;;;;;;5093626;28;20963;-71
2022/05/27 12:35:53;;;;;;;14.20;3.23;;;;;;;;;;5093805;28;20523;-70
2022/05/27 12:38:25;;;;;;;16.20;2.83;;;;;;;;;;5093456;28;20896;-69
2022/05/27 12:40:53;;;;;;;16.77;3.03;;;;;;;;;;5093599;28;20434;-70
2022/05/27 12:43:22;;;;;;;14.43;2.50;;;;;;;;;;5093231;28;20485;-70
2022/05/27 12:45:51;;;;;;;12.87;2.77;;;;;;;;;;5093522;28;20445;-70
2022/05/27 12:48:28;;;;;;;14.27;3.10;;;;;;;;;;5093781;28;20533;-70
2022/05/27 12:50:56;;;;;;;15.00;3.30;;;;;;;;;;5093288;28;20438;-70
2022/05/27 12:53:37;;;;;;;14.40;3.20;;;;;;;;;;5093543;28;20568;-70
2022/05/27 13:02:18;;;;;;;14.30;3.27;;;;;;;;;;5093229;28;20417;-70
2022/05/27 13:04:49;;;;;;;16.20;3.30;;;;;;;;;;5093213;28;20469;-70
2022/05/27 13:07:17;;;;;;;16.33;2.80;;;;;;;;;;5092894;28;20437;-71
2022/05/27 13:09:47;;;;;;;13.07;2.70;;;;;;;;;;5092986;28;20434;-70
2022/05/27 13:12:47;;;;;;;15.70;2.90;;;;;;;;;;5093065;28;20495;-70
2022/05/27 13:15:16;;;;;;;13.60;2.57;;;;;;;;;;5092566;28;20430;-71
2022/05/27 13:17:45;;;;;;;13.30;2.80;;;;;;;;;;5092899;28;20434;-70
2022/05/27 13:20:22;;;;;;;17.40;2.70;;;;;;;;;;5092469;28;20438;-70
2022/05/27 13:22:57;;;;;;;13.60;2.77;;;;;;;;;;5092758;28;20484;-70
2022/05/27 13:25:26;;;;;;;17.23;2.80;;;;;;;;;;5092786;28;20506;-70
2022/05/27 13:27:58;;;;;;;15.73;2.83;;;;;;;;;;5092647;28;20434;-70
2022/05/27 13:30:26;;;;;;;16.73;2.63;;;;;;;;;;5092154;28;20456;-70
2022/05/27 13:33:00;;;;;;;16.17;2.77;;;;;;;;;;5092568;28;20448;-70
2022/05/27 13:35:35;;;;;;;19.07;3.27;;;;;;;;;;5092698;28;20876;-70
2022/05/27 13:38:03;;;;;;;15.80;2.50;;;;;;;;;;5092860;28;20441;-70
2022/05/27 13:40:32;;;;;;;13.67;3.00;;;;;;;;;;5092510;28;20476;-71
2022/05/27 13:43:01;;;;;;;13.07;2.87;;;;;;;;;;5092395;28;20482;-70
2022/05/27 13:45:30;;;;;;;14.00;2.77;;;;;;;;;;5092513;28;20430;-70
2022/05/27 13:47:59;;;;;;;14.33;2.87;;;;;;;;;;5092320;28;20445;-70
2022/05/27 13:50:28;;;;;;;14.00;3.50;;;;;;;;;;5092269;28;20448;-70
2022/05/27 13:52:57;;;;;;;13.57;3.10;;;;;;;;;;5092257;28;20959;-70
2022/05/27 13:55:28;;;;;;;15.70;3.10;;;;;;;;;;5092163;28;20456;-70
2022/05/27 13:57:58;;;;;;;16.00;3.07;;;;;;;;;;5092442;28;20438;-70
2022/05/27 14:00:26;;;;;;;14.30;3.43;;;;;;;;;;5092141;28;20984;-70
2022/05/27 14:02:53;;;;;;;13.17;2.97;;;;;;;;;;5092085;28;20474;-70
2022/05/27 14:05:23;;;;;;;12.80;2.80;;;;;;;;;;5091928;28;20442;-70
2022/05/27 14:07:52;;;;;;;13.10;3.07;;;;;;;;;;5092250;28;20437;-70
2022/05/27 14:10:22;;;;;;;13.40;2.80;;;;;;;;;;5092367;28;20457;-70
2022/05/27 14:12:50;;;;;;;14.57;3.37;;;;;;;;;;5092011;28;20970;-70
2022/05/27 14:15:24;;;;;;;13.50;3.30;;;;;;;;;;5091918;28;20450;-72
2022/05/27 14:17:52;;;;;;;13.47;3.23;;;;;;;;;;5092228;28;20434;-70
2022/05/27 14:20:27;;;;;;;15.33;3.40;;;;;;;;;;5091788;28;20469;-70
2022/05/27 14:22:55;;;;;;;13.53;3.00;;;;;;;;;;5092161;28;20554;-70
2022/05/27 14:25:26;;;;;;;13.10;2.30;;;;;;;;;;5091978;28;20840;-70
2022/05/27 14:27:55;;;;;;;13.07;3.00;;;;;;;;;;5092081;28;20438;-71
2022/05/27 14:30:25;;;;;;;13.00;2.60;;;;;;;;;;5091872;28;20434;-70
2022/05/27 14:32:53;;;;;;;12.50;2.60;;;;;;;;;;5091890;28;20442;-70
2022/05/27 14:35:22;;;;;;;12.70;2.70;;;;;;;;;;5091552;28;20438;-70
2022/05/27 14:37:53;;;;;;;13.70;2.93;;;;;;;;;;5091657;28;20837;-70
2022/05/27 14:40:22;;;;;;;13.23;3.13;;;;;;;;;;5091749;28;20448;-70
2022/05/27 14:42:51;;;;;;;12.83;2.80;;;;;;;;;;5093209;28;20525;-70
2022/05/27 14:45:42;;;;;;;14.00;2.73;;;;;;;;;;5095488;28;20966;-71
2022/05/27 14:48:27;;;;;;;13.80;2.90;;;;;;;;;;5095908;28;20503;-70
2022/05/27 14:50:56;;;;;;;14.57;3.50;;;;;;;;;;5095794;28;20437;-70
2022/05/27 14:53:24;;;;;;;14.00;3.50;;;;;;;;;;5095659;28;20885;-70
2022/05/27 14:55:58;;;;;;;14.83;3.80;;;;;;;;;;5095534;28;20978;-70
2022/05/27 14:58:33;;;;;;;13.47;3.30;;;;;;;;;;5095682;28;20494;-70
2022/05/27 15:01:00;;;;;;;14.03;2.70;;;;;;;;;;5095923;28;20441;-70
2022/05/27 15:03:32;;;;;;;13.90;3.40;;;;;;;;;;5095317;28;20481;-70
2022/05/27 15:06:09;;;;;;;13.43;3.03;;;;;;;;;;5095663;28;21062;-70
2022/05/27 15:08:37;;;;;;;13.50;2.80;;;;;;;;;;5095359;28;20441;-70
2022/05/27 15:11:06;;;;;;;18.00;3.30;;;;;;;;;;5095327;28;20438;-70
2022/05/27 15:13:45;;;;;;;15.30;3.43;;;;;;;;;;5095159;28;20438;-70
2022/05/27 15:16:13;;;;;;;13.50;2.97;;;;;;;;;;5095402;28;20939;-70
2022/05/27 15:18:45;;;;;;;18.50;2.53;;;;;;;;;;5095195;28;20434;-70
2022/05/27 15:21:15;;;;;;;15.17;2.57;;;;;;;;;;5095416;28;20473;-70
2022/05/27 15:23:47;;;;;;;14.43;2.50;;;;;;;;;;5094817;28;20480;-70